sensor_id;sensor_type;location;lat;lon;timestamp;pressure;altitude;pressure_sealevel;temperature;humidity
65175;BME280;51761;42.126;24.752;2023-09-07T00:00:39;100042.31;;;22.79;78.58
65175;BME280;51761;42.126;24.752;2023-09-07T00:03:05;100057.88;;;22.98;78.66
65175;BME280;51761;42.126;24.752;2023-09-07T00:05:31;100053.44;;;22.97;77.19
65175;BME280;51761;42.126;24.752;2023-09-07T00:07:56;100062.47;;;22.96;77.67
65175;BME280;51761;42.126;24.752;2023-09-07T00:10:23;100056.31;;;22.97;78.53
65175;BME280;51761;42.126;24.752;2023-09-07T00:12:48;100056.69;;;23.05;76.83
65175;BME280;51761;42.126;24.752;2023-09-07T00:15:37;100062.47;;;22.96;77.17
65175;BME280;51761;42.126;24.752;2023-09-07T00:18:02;100065.22;;;23.05;76.77
65175;BME280;51761;42.126;24.752;2023-09-07T00:20:28;100069.06;;;23.02;75.91
65175;BME280;51761;42.126;24.752;2023-09-07T00:22:53;100063.00;;;22.94;76.23
65175;BME280;51761;42.126;24.752;2023-09-07T00:25:19;100069.47;;;22.95;76.21
65175;BME280;51761;42.126;24.752;2023-09-07T00:27:46;100076.09;;;22.86;76.57
65175;BME280;51761;42.126;24.752;2023-09-07T00:30:11;100066.47;;;22.84;75.29
65175;BME280;51761;42.126;24.752;2023-09-07T00:32:37;100070.59;;;22.83;75.54
65175;BME280;51761;42.126;24.752;2023-09-07T00:35:04;100063.53;;;22.78;75.10
65175;BME280;51761;42.126;24.752;2023-09-07T00:37:30;100070.03;;;22.79;75.05
65175;BME280;51761;42.126;24.752;2023-09-07T00:39:56;100046.78;;;22.66;74.46
65175;BME280;51761;42.126;24.752;2023-09-07T00:42:21;100067.66;;;22.77;73.93
65175;BME280;51761;42.126;24.752;2023-09-07T00:44:47;100064.22;;;22.73;72.30
65175;BME280;51761;42.126;24.752;2023-09-07T00:47:14;100052.56;;;22.71;72.64
65175;BME280;51761;42.126;24.752;2023-09-07T00:49:40;100065.38;;;22.81;72.46
65175;BME280;51761;42.126;24.752;2023-09-07T00:52:07;100063.53;;;22.78;72.80
65175;BME280;51761;42.126;24.752;2023-09-07T00:54:33;100044.00;;;22.71;72.44
65175;BME280;51761;42.126;24.752;2023-09-07T00:56:59;100070.03;;;22.79;72.39
65175;BME280;51761;42.126;24.752;2023-09-07T00:59:25;100065.69;;;22.83;74.59
65175;BME280;51761;42.126;24.752;2023-09-07T01:01:51;100057.50;;;22.91;72.20
65175;BME280;51761;42.126;24.752;2023-09-07T01:04:16;100061.06;;;22.86;72.12
65175;BME280;51761;42.126;24.752;2023-09-07T01:06:53;100061.75;;;22.81;71.43
65175;BME280;51761;42.126;24.752;2023-09-07T01:09:24;100057.63;;;22.82;70.92
65175;BME280;51761;42.126;24.752;2023-09-07T01:11:50;100018.63;;;22.53;71.35
65175;BME280;51761;42.126;24.752;2023-09-07T01:14:17;100050.22;;;22.70;70.60
65175;BME280;51761;42.126;24.752;2023-09-07T01:16:42;100042.56;;;22.61;70.69
65175;BME280;51761;42.126;24.752;2023-09-07T01:19:08;100048.13;;;22.70;70.13
65175;BME280;51761;42.126;24.752;2023-09-07T01:21:36;100056.25;;;22.77;69.92
65175;BME280;51761;42.126;24.752;2023-09-07T01:24:04;100054.69;;;22.76;70.28
65175;BME280;51761;42.126;24.752;2023-09-07T01:26:31;100054.69;;;22.76;70.71
65175;BME280;51761;42.126;24.752;2023-09-07T01:28:57;100054.63;;;22.71;71.21
65175;BME280;51761;42.126;24.752;2023-09-07T01:31:22;100048.53;;;22.78;73.01
65175;BME280;51761;42.126;24.752;2023-09-07T01:33:48;100040.78;;;22.64;72.24
65175;BME280;51761;42.126;24.752;2023-09-07T01:36:13;100055.69;;;22.73;73.74
65175;BME280;51761;42.126;24.752;2023-09-07T01:38:39;100041.63;;;22.50;75.60
65175;BME280;51761;42.126;24.752;2023-09-07T01:41:04;100014.16;;;22.33;77.10
65175;BME280;51761;42.126;24.752;2023-09-07T01:43:30;100056.34;;;22.49;77.84
65175;BME280;51761;42.126;24.752;2023-09-07T01:45:55;100056.47;;;22.40;78.31
65175;BME280;51761;42.126;24.752;2023-09-07T01:48:21;100061.97;;;22.43;80.37
65175;BME280;51761;42.126;24.752;2023-09-07T01:50:46;100054.78;;;22.48;82.12
65175;BME280;51761;42.126;24.752;2023-09-07T01:53:12;100061.44;;;22.45;82.38
65175;BME280;51761;42.126;24.752;2023-09-07T01:55:37;100056.75;;;22.42;84.11
65175;BME280;51761;42.126;24.752;2023-09-07T01:58:03;100042.97;;;22.26;83.69
65175;BME280;51761;42.126;24.752;2023-09-07T02:00:28;100058.41;;;22.34;84.76
65175;BME280;51761;42.126;24.752;2023-09-07T02:02:54;100047.91;;;22.25;85.06
65175;BME280;51761;42.126;24.752;2023-09-07T02:05:20;100026.91;;;22.08;85.48
65175;BME280;51761;42.126;24.752;2023-09-07T02:07:46;100056.25;;;22.14;85.81
65175;BME280;51761;42.126;24.752;2023-09-07T02:10:14;100049.88;;;22.19;86.29
65175;BME280;51761;42.126;24.752;2023-09-07T02:12:40;100054.38;;;22.11;86.89
65175;BME280;51761;42.126;24.752;2023-09-07T02:15:06;100059.88;;;22.00;87.64
65175;BME280;51761;42.126;24.752;2023-09-07T02:17:31;100039.69;;;21.84;88.36
65175;BME280;51761;42.126;24.752;2023-09-07T02:19:57;100062.13;;;21.96;89.06
65175;BME280;51761;42.126;24.752;2023-09-07T02:22:23;100052.91;;;21.72;90.23
65175;BME280;51761;42.126;24.752;2023-09-07T02:24:48;100058.59;;;21.72;91.17
65175;BME280;51761;42.126;24.752;2023-09-07T02:27:14;100045.41;;;21.60;91.99
65175;BME280;51761;42.126;24.752;2023-09-07T02:29:40;100067.34;;;21.60;92.78
65175;BME280;51761;42.126;24.752;2023-09-07T02:32:05;100042.72;;;21.42;93.41
65175;BME280;51761;42.126;24.752;2023-09-07T02:34:32;100065.50;;;21.57;93.29
65175;BME280;51761;42.126;24.752;2023-09-07T02:37:02;100058.72;;;21.54;93.82
65175;BME280;51761;42.126;24.752;2023-09-07T02:39:28;100059.50;;;21.55;94.21
65175;BME280;51761;42.126;24.752;2023-09-07T02:41:53;100035.47;;;21.41;94.88
65175;BME280;51761;42.126;24.752;2023-09-07T02:44:19;100060.88;;;21.45;95.61
65175;BME280;51761;42.126;24.752;2023-09-07T02:46:44;100041.22;;;21.32;96.58
65175;BME280;51761;42.126;24.752;2023-09-07T02:49:09;100052.31;;;21.30;97.13
65175;BME280;51761;42.126;24.752;2023-09-07T02:51:35;100033.63;;;21.15;97.90
65175;BME280;51761;42.126;24.752;2023-09-07T02:54:02;100052.94;;;21.25;98.23
65175;BME280;51761;42.126;24.752;2023-09-07T02:56:28;100058.53;;;21.20;99.03
65175;BME280;51761;42.126;24.752;2023-09-07T02:58:54;100053.03;;;21.16;99.33
65175;BME280;51761;42.126;24.752;2023-09-07T03:01:19;100040.47;;;21.08;99.33
65175;BME280;51761;42.126;24.752;2023-09-07T03:03:46;100059.59;;;21.22;99.50
65175;BME280;51761;42.126;24.752;2023-09-07T03:06:13;100039.19;;;21.09;99.75
65175;BME280;51761;42.126;24.752;2023-09-07T03:08:40;100031.81;;;21.03;100.00
65175;BME280;51761;42.126;24.752;2023-09-07T03:11:07;100054.53;;;21.03;100.00
65175;BME280;51761;42.126;24.752;2023-09-07T03:13:32;100062.59;;;21.04;100.00
65175;BME280;51761;42.126;24.752;2023-09-07T03:15:58;100060.22;;;21.03;100.00
65175;BME280;51761;42.126;24.752;2023-09-07T03:18:24;100045.88;;;20.97;100.00
65175;BME280;51761;42.126;24.752;2023-09-07T03:20:50;100069.84;;;21.05;100.00
65175;BME280;51761;42.126;24.752;2023-09-07T03:26:23;100072.72;;;20.96;100.00
65175;BME280;51761;42.126;24.752;2023-09-07T03:28:49;100071.16;;;20.95;100.00
65175;BME280;51761;42.126;24.752;2023-09-07T03:31:14;100072.13;;;20.92;100.00
65175;BME280;51761;42.126;24.752;2023-09-07T03:33:40;100083.78;;;20.94;100.00
65175;BME280;51761;42.126;24.752;2023-09-07T03:36:05;100077.50;;;20.90;100.00
65175;BME280;51761;42.126;24.752;2023-09-07T03:38:31;100081.91;;;20.91;100.00
65175;BME280;51761;42.126;24.752;2023-09-07T03:40:56;100072.78;;;20.88;100.00
65175;BME280;51761;42.126;24.752;2023-09-07T03:43:22;100076.88;;;20.87;100.00
65175;BME280;51761;42.126;24.752;2023-09-07T03:45:48;100084.16;;;20.79;100.00
65175;BME280;51761;42.126;24.752;2023-09-07T03:48:13;100066.03;;;20.85;100.00
65175;BME280;51761;42.126;24.752;2023-09-07T03:50:39;100092.06;;;20.84;100.00
65175;BME280;51761;42.126;24.752;2023-09-07T03:53:04;100076.31;;;20.74;100.00
65175;BME280;51761;42.126;24.752;2023-09-07T03:55:40;100086.03;;;20.82;100.00
65175;BME280;51761;42.126;24.752;2023-09-07T03:58:06;100093.56;;;20.93;100.00
65175;BME280;51761;42.126;24.752;2023-09-07T04:00:31;100094.38;;;20.94;100.00
65175;BME280;51761;42.126;24.752;2023-09-07T04:02:56;100098.94;;;20.91;100.00
65175;BME280;51761;42.126;24.752;2023-09-07T04:05:22;100098.03;;;20.86;100.00
65175;BME280;51761;42.126;24.752;2023-09-07T04:07:50;100080.59;;;20.69;100.00
65175;BME280;51761;42.126;24.752;2023-09-07T04:10:15;100091.72;;;20.82;100.00
65175;BME280;51761;42.126;24.752;2023-09-07T04:12:41;100092.28;;;20.94;100.00
65175;BME280;51761;42.126;24.752;2023-09-07T04:15:07;100100.81;;;20.94;100.00
65175;BME280;51761;42.126;24.752;2023-09-07T04:17:32;100103.78;;;21.00;100.00
65175;BME280;51761;42.126;24.752;2023-09-07T04:20:06;100083.47;;;20.92;100.00
65175;BME280;51761;42.126;24.752;2023-09-07T04:22:32;100096.31;;;21.11;100.00
65175;BME280;51761;42.126;24.752;2023-09-07T04:24:58;100098.09;;;21.23;100.00
65175;BME280;51761;42.126;24.752;2023-09-07T04:27:23;100095.25;;;21.23;100.00
65175;BME280;51761;42.126;24.752;2023-09-07T04:29:48;100085.16;;;21.22;100.00
65175;BME280;51761;42.126;24.752;2023-09-07T04:32:15;100095.00;;;21.36;100.00
65175;BME280;51761;42.126;24.752;2023-09-07T04:34:40;100099.63;;;21.33;100.00
65175;BME280;51761;42.126;24.752;2023-09-07T04:37:06;100089.53;;;21.32;100.00
65175;BME280;51761;42.126;24.752;2023-09-07T04:39:31;100095.00;;;21.36;100.00
65175;BME280;51761;42.126;24.752;2023-09-07T04:41:57;100096.19;;;21.29;100.00
65175;BME280;51761;42.126;24.752;2023-09-07T04:44:22;100097.81;;;21.45;100.00
65175;BME280;51761;42.126;24.752;2023-09-07T04:46:48;100117.25;;;21.61;99.91
65175;BME280;51761;42.126;24.752;2023-09-07T04:49:13;100117.75;;;21.59;99.89
65175;BME280;51761;42.126;24.752;2023-09-07T04:51:39;100122.03;;;21.78;99.29
65175;BME280;51761;42.126;24.752;2023-09-07T04:54:04;100102.41;;;21.80;98.04
65175;BME280;51761;42.126;24.752;2023-09-07T04:56:30;100101.72;;;21.71;98.65
65175;BME280;51761;42.126;24.752;2023-09-07T05:05:12;100126.66;;;21.90;97.24
65175;BME280;51761;42.126;24.752;2023-09-07T05:07:37;100098.81;;;21.94;99.52
65175;BME280;51761;42.126;24.752;2023-09-07T05:10:03;100120.22;;;22.19;98.66
65175;BME280;51761;42.126;24.752;2023-09-07T05:12:29;100128.56;;;22.22;97.33
65175;BME280;51761;42.126;24.752;2023-09-07T05:14:54;100128.69;;;22.42;94.54
65175;BME280;51761;42.126;24.752;2023-09-07T05:17:20;100125.94;;;22.48;95.49
65175;BME280;51761;42.126;24.752;2023-09-07T05:19:45;100107.97;;;22.42;95.43
65175;BME280;51761;42.126;24.752;2023-09-07T05:22:11;100123.00;;;22.57;94.55
65175;BME280;51761;42.126;24.752;2023-09-07T05:24:40;100078.94;;;22.38;95.06
65175;BME280;51761;42.126;24.752;2023-09-07T05:27:06;100123.38;;;22.98;95.77
65175;BME280;51761;42.126;24.752;2023-09-07T05:29:31;100128.31;;;23.32;93.47
65175;BME280;51761;42.126;24.752;2023-09-07T05:31:57;100107.00;;;23.48;90.87
65175;BME280;51761;42.126;24.752;2023-09-07T05:34:22;100118.53;;;23.79;88.20
65175;BME280;51761;42.126;24.752;2023-09-07T05:36:48;100122.88;;;23.94;87.73
65175;BME280;51761;42.126;24.752;2023-09-07T05:39:13;100129.56;;;24.11;86.78
65175;BME280;51761;42.126;24.752;2023-09-07T05:41:39;100128.91;;;24.22;85.88
65175;BME280;51761;42.126;24.752;2023-09-07T05:44:04;100126.97;;;24.38;84.93
65175;BME280;51761;42.126;24.752;2023-09-07T05:46:30;100117.97;;;24.45;81.89
65175;BME280;51761;42.126;24.752;2023-09-07T05:48:55;100120.47;;;24.58;81.32
65175;BME280;51761;42.126;24.752;2023-09-07T05:51:21;100123.03;;;24.92;80.02
65175;BME280;51761;42.126;24.752;2023-09-07T05:53:46;100123.31;;;25.25;78.67
65175;BME280;51761;42.126;24.752;2023-09-07T05:56:12;100118.94;;;25.93;74.33
65175;BME280;51761;42.126;24.752;2023-09-07T05:58:37;100121.41;;;27.05;70.82
65175;BME280;51761;42.126;24.752;2023-09-07T06:01:03;100136.22;;;28.09;67.13
65175;BME280;51761;42.126;24.752;2023-09-07T06:03:30;100122.78;;;28.63;64.88
65175;BME280;51761;42.126;24.752;2023-09-07T06:05:57;100109.53;;;29.14;61.61
65175;BME280;51761;42.126;24.752;2023-09-07T06:08:22;100122.66;;;29.81;59.00
65175;BME280;51761;42.126;24.752;2023-09-07T06:10:48;100113.78;;;30.34;57.18
65175;BME280;51761;42.126;24.752;2023-09-07T06:13:13;100133.63;;;30.88;55.15
65175;BME280;51761;42.126;24.752;2023-09-07T06:15:39;100140.28;;;31.27;53.67
65175;BME280;51761;42.126;24.752;2023-09-07T06:18:04;100136.47;;;31.06;54.36
65175;BME280;51761;42.126;24.752;2023-09-07T06:20:30;100134.03;;;30.29;55.96
65175;BME280;51761;42.126;24.752;2023-09-07T06:22:55;100141.16;;;29.85;57.96
65175;BME280;51761;42.126;24.752;2023-09-07T06:25:21;100126.81;;;29.14;59.25
65175;BME280;51761;42.126;24.752;2023-09-07T06:27:47;100141.47;;;28.81;60.56
65175;BME280;51761;42.126;24.752;2023-09-07T06:30:13;100128.72;;;28.71;60.38
65175;BME280;51761;42.126;24.752;2023-09-07T06:32:38;100142.16;;;28.57;62.95
65175;BME280;51761;42.126;24.752;2023-09-07T06:35:05;100133.81;;;28.13;63.40
65175;BME280;51761;42.126;24.752;2023-09-07T06:37:31;100128.25;;;28.26;62.64
65175;BME280;51761;42.126;24.752;2023-09-07T06:39:56;100149.84;;;29.38;60.04
65175;BME280;51761;42.126;24.752;2023-09-07T06:42:22;100146.38;;;29.87;58.41
65175;BME280;51761;42.126;24.752;2023-09-07T06:44:47;100145.66;;;30.42;57.06
65175;BME280;51761;42.126;24.752;2023-09-07T06:47:13;100145.88;;;30.44;55.73
65175;BME280;51761;42.126;24.752;2023-09-07T06:49:38;100156.81;;;30.82;54.52
65175;BME280;51761;42.126;24.752;2023-09-07T06:52:04;100151.13;;;31.65;51.95
65175;BME280;51761;42.126;24.752;2023-09-07T06:54:30;100137.88;;;31.83;51.47
65175;BME280;51761;42.126;24.752;2023-09-07T06:56:55;100138.66;;;31.96;51.30
65175;BME280;51761;42.126;24.752;2023-09-07T06:59:21;100155.09;;;31.62;51.71
65175;BME280;51761;42.126;24.752;2023-09-07T07:01:46;100151.34;;;31.80;51.08
65175;BME280;51761;42.126;24.752;2023-09-07T07:04:12;100155.28;;;32.29;49.16
65175;BME280;51761;42.126;24.752;2023-09-07T07:06:37;100160.56;;;31.79;50.55
65175;BME280;51761;42.126;24.752;2023-09-07T07:09:03;100156.44;;;31.87;49.56
65175;BME280;51761;42.126;24.752;2023-09-07T07:11:28;100150.97;;;31.45;50.51
65175;BME280;51761;42.126;24.752;2023-09-07T07:13:54;100139.84;;;30.79;52.23
65175;BME280;51761;42.126;24.752;2023-09-07T07:16:19;100150.81;;;30.12;54.97
65175;BME280;51761;42.126;24.752;2023-09-07T07:18:45;100141.78;;;29.97;56.13
65175;BME280;51761;42.126;24.752;2023-09-07T07:21:10;100139.47;;;29.53;57.47
65175;BME280;51761;42.126;24.752;2023-09-07T07:23:36;100123.34;;;28.91;59.02
65175;BME280;51761;42.126;24.752;2023-09-07T07:26:01;100128.81;;;28.95;58.64
65175;BME280;51761;42.126;24.752;2023-09-07T07:28:27;100131.31;;;28.74;59.43
65175;BME280;51761;42.126;24.752;2023-09-07T07:30:52;100149.22;;;28.91;60.16
65175;BME280;51761;42.126;24.752;2023-09-07T07:33:19;100132.66;;;29.03;59.50
65175;BME280;51761;42.126;24.752;2023-09-07T07:35:45;100142.00;;;28.79;59.88
65175;BME280;51761;42.126;24.752;2023-09-07T07:38:11;100157.59;;;28.89;59.39
65175;BME280;51761;42.126;24.752;2023-09-07T07:40:39;100152.56;;;29.96;56.59
65175;BME280;51761;42.126;24.752;2023-09-07T07:43:04;100143.25;;;30.27;56.01
65175;BME280;51761;42.126;24.752;2023-09-07T07:45:31;100153.22;;;30.26;55.21
65175;BME280;51761;42.126;24.752;2023-09-07T07:48:01;100163.56;;;30.53;55.56
65175;BME280;51761;42.126;24.752;2023-09-07T07:50:27;100167.34;;;30.80;52.80
65175;BME280;51761;42.126;24.752;2023-09-07T07:52:53;100165.19;;;31.43;51.38
65175;BME280;51761;42.126;24.752;2023-09-07T07:55:18;100166.22;;;31.71;49.50
65175;BME280;51761;42.126;24.752;2023-09-07T07:57:43;100172.22;;;31.73;49.29
65175;BME280;51761;42.126;24.752;2023-09-07T08:00:09;100173.09;;;31.55;50.09
65175;BME280;51761;42.126;24.752;2023-09-07T08:02:35;100171.47;;;31.15;51.57
65175;BME280;51761;42.126;24.752;2023-09-07T08:05:00;100163.72;;;30.42;53.47
65175;BME280;51761;42.126;24.752;2023-09-07T08:07:26;100169.09;;;30.33;52.06
65175;BME280;51761;42.126;24.752;2023-09-07T08:09:52;100179.47;;;29.99;53.45
65175;BME280;51761;42.126;24.752;2023-09-07T08:12:18;100175.91;;;29.69;53.69
65175;BME280;51761;42.126;24.752;2023-09-07T08:14:43;100166.28;;;29.66;54.01
65175;BME280;51761;42.126;24.752;2023-09-07T08:17:09;100166.19;;;29.24;55.83
65175;BME280;51761;42.126;24.752;2023-09-07T08:19:34;100153.47;;;29.38;54.23
65175;BME280;51761;42.126;24.752;2023-09-07T08:22:00;100157.78;;;29.74;53.78
65175;BME280;51761;42.126;24.752;2023-09-07T08:24:29;100153.78;;;29.58;53.47
65175;BME280;51761;42.126;24.752;2023-09-07T08:26:54;100153.13;;;29.47;54.85
65175;BME280;51761;42.126;24.752;2023-09-07T08:29:21;100156.50;;;28.98;55.73
65175;BME280;51761;42.126;24.752;2023-09-07T08:31:46;100152.91;;;28.86;57.62
65175;BME280;51761;42.126;24.752;2023-09-07T08:34:13;100137.47;;;28.54;57.78
65175;BME280;51761;42.126;24.752;2023-09-07T08:36:40;100143.13;;;28.30;58.11
65175;BME280;51761;42.126;24.752;2023-09-07T08:39:06;100144.78;;;28.15;60.39
65175;BME280;51761;42.126;24.752;2023-09-07T08:41:39;100151.59;;;28.06;60.25
65175;BME280;51761;42.126;24.752;2023-09-07T08:44:10;100142.91;;;28.23;58.26
65175;BME280;51761;42.126;24.752;2023-09-07T08:46:37;100148.13;;;28.24;57.87
65175;BME280;51761;42.126;24.752;2023-09-07T08:49:03;100135.34;;;28.60;57.52
65175;BME280;51761;42.126;24.752;2023-09-07T08:51:29;100138.97;;;28.66;56.68
65175;BME280;51761;42.126;24.752;2023-09-07T08:53:55;100139.75;;;28.32;58.09
65175;BME280;51761;42.126;24.752;2023-09-07T08:56:21;100126.22;;;28.16;58.12
65175;BME280;51761;42.126;24.752;2023-09-07T08:58:47;100133.25;;;28.20;57.76
65175;BME280;51761;42.126;24.752;2023-09-07T09:01:16;100128.03;;;28.59;57.83
65175;BME280;51761;42.126;24.752;2023-09-07T09:03:42;100128.06;;;29.42;53.91
65175;BME280;51761;42.126;24.752;2023-09-07T09:06:08;100134.28;;;29.70;53.06
65175;BME280;51761;42.126;24.752;2023-09-07T09:08:54;100129.63;;;29.67;54.73
65175;BME280;51761;42.126;24.752;2023-09-07T09:11:21;100107.44;;;29.38;52.62
65175;BME280;51761;42.126;24.752;2023-09-07T09:13:47;100125.59;;;29.28;53.92
65175;BME280;51761;42.126;24.752;2023-09-07T09:16:14;100120.97;;;29.43;53.83
65175;BME280;51761;42.126;24.752;2023-09-07T09:18:50;100097.47;;;29.39;54.66
65175;BME280;51761;42.126;24.752;2023-09-07T09:21:18;100115.81;;;29.36;54.48
65175;BME280;51761;42.126;24.752;2023-09-07T09:23:47;100096.63;;;29.20;55.68
65175;BME280;51761;42.126;24.752;2023-09-07T09:26:13;100110.75;;;29.47;54.85
65175;BME280;51761;42.126;24.752;2023-09-07T09:28:38;100089.69;;;29.34;55.11
65175;BME280;51761;42.126;24.752;2023-09-07T09:31:04;100115.00;;;29.83;52.07
65175;BME280;51761;42.126;24.752;2023-09-07T09:33:32;100110.50;;;30.43;50.03
65175;BME280;51761;42.126;24.752;2023-09-07T09:36:01;100095.84;;;30.60;48.81
65175;BME280;51761;42.126;24.752;2023-09-07T09:38:27;100081.81;;;30.51;48.84
65175;BME280;51761;42.126;24.752;2023-09-07T09:40:54;100087.09;;;30.65;49.49
65175;BME280;51761;42.126;24.752;2023-09-07T09:43:20;100099.31;;;30.71;50.38
65175;BME280;51761;42.126;24.752;2023-09-07T09:45:48;100097.31;;;30.66;49.70
65175;BME280;51761;42.126;24.752;2023-09-07T09:48:16;100083.47;;;30.65;48.25
65175;BME280;51761;42.126;24.752;2023-09-07T09:50:43;100091.59;;;30.92;49.86
65175;BME280;51761;42.126;24.752;2023-09-07T09:53:10;100077.69;;;31.22;47.21
65175;BME280;51761;42.126;24.752;2023-09-07T09:55:41;100069.91;;;31.56;46.09
65175;BME280;51761;42.126;24.752;2023-09-07T09:58:06;100082.16;;;31.36;45.03
65175;BME280;51761;42.126;24.752;2023-09-07T10:00:32;100083.13;;;31.13;46.73
65175;BME280;51761;42.126;24.752;2023-09-07T10:03:08;100081.34;;;30.65;47.05
65175;BME280;51761;42.126;24.752;2023-09-07T10:05:37;100064.19;;;30.54;47.81
65175;BME280;51761;42.126;24.752;2023-09-07T10:08:09;100077.44;;;30.13;47.10
65175;BME280;51761;42.126;24.752;2023-09-07T10:10:35;100070.72;;;29.86;46.46
65175;BME280;51761;42.126;24.752;2023-09-07T10:13:02;100051.34;;;29.87;47.55
65175;BME280;51761;42.126;24.752;2023-09-07T10:15:29;100070.31;;;30.32;45.51
65175;BME280;51761;42.126;24.752;2023-09-07T10:18:11;100071.50;;;30.74;46.64
65175;BME280;51761;42.126;24.752;2023-09-07T10:20:55;100072.75;;;31.04;44.42
65175;BME280;51761;42.126;24.752;2023-09-07T10:23:22;100050.47;;;31.56;43.72
65175;BME280;51761;42.126;24.752;2023-09-07T10:25:49;100064.34;;;31.84;41.34
65175;BME280;51761;42.126;24.752;2023-09-07T10:28:23;100063.38;;;31.68;41.88
65175;BME280;51761;42.126;24.752;2023-09-07T10:31:13;100056.50;;;30.62;43.81
65175;BME280;51761;42.126;24.752;2023-09-07T10:33:53;100063.91;;;30.39;46.59
65175;BME280;51761;42.126;24.752;2023-09-07T10:36:40;100059.75;;;30.22;45.46
65175;BME280;51761;42.126;24.752;2023-09-07T10:39:20;100052.72;;;29.99;43.88
65175;BME280;51761;42.126;24.752;2023-09-07T10:41:47;100052.38;;;30.39;42.23
65175;BME280;51761;42.126;24.752;2023-09-07T10:44:13;100040.22;;;30.78;43.22
65175;BME280;51761;42.126;24.752;2023-09-07T10:46:39;100034.50;;;31.16;43.97
65175;BME280;51761;42.126;24.752;2023-09-07T10:49:11;100043.16;;;31.55;41.63
65175;BME280;51761;42.126;24.752;2023-09-07T10:51:41;100051.31;;;31.90;42.01
65175;BME280;51761;42.126;24.752;2023-09-07T10:56:42;100047.69;;;32.44;39.26
65175;BME280;51761;42.126;24.752;2023-09-07T10:59:08;100055.91;;;32.19;38.79
65175;BME280;51761;42.126;24.752;2023-09-07T11:01:34;100047.69;;;32.23;38.00
65175;BME280;51761;42.126;24.752;2023-09-07T11:03:59;100037.88;;;32.47;37.07
65175;BME280;51761;42.126;24.752;2023-09-07T11:06:25;100044.88;;;32.51;37.58
65175;BME280;51761;42.126;24.752;2023-09-07T11:08:51;100019.34;;;32.42;38.55
65175;BME280;51761;42.126;24.752;2023-09-07T11:11:16;100036.91;;;32.85;39.96
65175;BME280;51761;42.126;24.752;2023-09-07T11:13:42;100025.13;;;32.83;36.70
65175;BME280;51761;42.126;24.752;2023-09-07T11:16:09;100016.56;;;32.57;36.97
65175;BME280;51761;42.126;24.752;2023-09-07T11:18:35;100027.22;;;32.42;37.15
65175;BME280;51761;42.126;24.752;2023-09-07T11:21:04;100018.97;;;32.46;37.62
65175;BME280;51761;42.126;24.752;2023-09-07T11:23:30;100011.16;;;32.54;36.81
65175;BME280;51761;42.126;24.752;2023-09-07T11:26:04;100016.66;;;32.44;36.64
65175;BME280;51761;42.126;24.752;2023-09-07T11:28:31;99991.84;;;32.49;38.39
65175;BME280;51761;42.126;24.752;2023-09-07T11:30:58;100006.22;;;32.41;38.55
65175;BME280;51761;42.126;24.752;2023-09-07T11:33:24;100008.59;;;32.09;39.08
65175;BME280;51761;42.126;24.752;2023-09-07T11:35:51;100003.34;;;32.08;37.91
65175;BME280;51761;42.126;24.752;2023-09-07T11:38:17;99995.38;;;32.55;39.65
65175;BME280;51761;42.126;24.752;2023-09-07T11:40:43;99978.09;;;32.62;40.20
65175;BME280;51761;42.126;24.752;2023-09-07T11:43:14;99982.81;;;32.52;37.97
65175;BME280;51761;42.126;24.752;2023-09-07T11:45:41;99973.84;;;32.22;37.48
65175;BME280;51761;42.126;24.752;2023-09-07T11:48:07;99959.03;;;32.46;40.60
65175;BME280;51761;42.126;24.752;2023-09-07T11:50:36;99970.16;;;32.83;37.65
65175;BME280;51761;42.126;24.752;2023-09-07T11:53:02;99975.91;;;32.35;38.51
65175;BME280;51761;42.126;24.752;2023-09-07T11:55:27;99958.41;;;32.40;37.08
65175;BME280;51761;42.126;24.752;2023-09-07T11:57:53;99953.00;;;32.16;36.37
65175;BME280;51761;42.126;24.752;2023-09-07T12:00:19;99951.91;;;32.06;36.58
65175;BME280;51761;42.126;24.752;2023-09-07T12:02:45;99953.69;;;31.76;36.78
65175;BME280;51761;42.126;24.752;2023-09-07T12:05:10;99953.88;;;31.91;36.65
65175;BME280;51761;42.126;24.752;2023-09-07T12:07:40;99953.22;;;31.85;36.71
65175;BME280;51761;42.126;24.752;2023-09-07T12:10:06;99958.16;;;31.97;36.61
65175;BME280;51761;42.126;24.752;2023-09-07T12:12:38;99936.03;;;32.00;36.90
65175;BME280;51761;42.126;24.752;2023-09-07T12:15:04;99941.97;;;31.94;38.53
65175;BME280;51761;42.126;24.752;2023-09-07T12:17:31;99926.31;;;31.56;38.44
65175;BME280;51761;42.126;24.752;2023-09-07T12:19:56;99942.31;;;31.44;38.23
65175;BME280;51761;42.126;24.752;2023-09-07T12:22:22;99928.06;;;31.00;38.43
65175;BME280;51761;42.126;24.752;2023-09-07T12:24:48;99937.81;;;31.23;37.55
65175;BME280;51761;42.126;24.752;2023-09-07T12:27:14;99932.22;;;31.64;38.70
65175;BME280;51761;42.126;24.752;2023-09-07T12:29:40;99933.97;;;31.67;36.70
65175;BME280;51761;42.126;24.752;2023-09-07T12:32:05;99912.84;;;31.72;36.26
65175;BME280;51761;42.126;24.752;2023-09-07T12:34:31;99927.38;;;32.00;36.76
65175;BME280;51761;42.126;24.752;2023-09-07T12:36:56;99928.63;;;32.12;37.70
65175;BME280;51761;42.126;24.752;2023-09-07T12:39:22;99929.69;;;32.01;37.56
65175;BME280;51761;42.126;24.752;2023-09-07T12:41:47;99930.13;;;32.05;36.54
65175;BME280;51761;42.126;24.752;2023-09-07T12:44:22;99908.34;;;31.84;36.51
65175;BME280;51761;42.126;24.752;2023-09-07T12:46:50;99934.28;;;31.76;36.25
65175;BME280;51761;42.126;24.752;2023-09-07T12:49:16;99927.66;;;31.55;37.73